Time;durP1;ratioP1;P1;durP2;ratioP2;P2;SDS_P1;SDS_P2;PMS_P1;PMS_P2;Temp;Humidity;BMP_temperature;BMP_pressure;BME280_temperature;BME280_humidity;BME280_pressure;Samples;Min_cycle;Max_cycle;Signal;HPM_P1;HPM_P2
2022/03/15 00:01:19;;;;;;;32.40;20.70;;;3.20;99.90;;;;;;4993400;28;20125;-67
2022/03/15 00:03:45;;;;;;;42.13;23.08;;;3.20;99.90;;;;;;5010340;28;20042;-67
2022/03/15 00:06:11;;;;;;;37.65;21.13;;;3.20;99.90;;;;;;5018434;28;20511;-67
2022/03/15 00:08:37;;;;;;;37.33;20.25;;;3.20;99.90;;;;;;5007734;28;20084;-67
2022/03/15 00:11:05;;;;;;;44.03;22.38;;;3.30;99.90;;;;;;5010414;28;20078;-67
2022/03/15 00:13:32;;;;;;;37.97;23.30;;;3.30;99.90;;;;;;5009067;28;20049;-66
2022/03/15 00:15:59;;;;;;;33.70;20.23;;;3.30;99.90;;;;;;5007085;28;20935;-66
2022/03/15 00:18:27;;;;;;;39.17;22.25;;;3.30;99.90;;;;;;5000227;28;20373;-67
2022/03/15 00:20:53;;;;;;;34.65;21.05;;;3.30;99.90;;;;;;5007151;28;20081;-67
2022/03/15 00:23:19;;;;;;;36.83;22.70;;;3.30;99.90;;;;;;4997404;28;20435;-67
2022/03/15 00:25:44;;;;;;;44.65;22.83;;;3.30;99.90;;;;;;5006802;28;20044;-66
2022/03/15 00:28:10;;;;;;;35.33;22.92;;;3.30;99.90;;;;;;5006389;28;20046;-67
2022/03/15 00:30:36;;;;;;;48.15;22.48;;;3.30;99.90;;;;;;5001892;28;20482;-67
2022/03/15 00:33:01;;;;;;;34.28;21.55;;;3.30;99.90;;;;;;5014786;28;20044;-67
2022/03/15 00:35:31;;;;;;;37.45;23.95;;;3.20;99.90;;;;;;5010796;28;20045;-67
2022/03/15 00:37:57;;;;;;;36.50;23.80;;;3.30;99.90;;;;;;5006136;28;20042;-67
2022/03/15 00:40:23;;;;;;;46.08;25.27;;;3.20;99.90;;;;;;5009934;28;20042;-67
2022/03/15 00:42:53;;;;;;;36.55;22.25;;;3.30;99.90;;;;;;5010775;28;20046;-67
2022/03/15 00:45:22;;;;;;;34.75;23.65;;;3.20;99.90;;;;;;5012067;28;20112;-67
2022/03/15 00:47:54;;;;;;;37.13;22.95;;;3.20;99.90;;;;;;5008035;28;20065;-66
2022/03/15 00:50:20;;;;;;;41.30;25.70;;;3.20;99.90;;;;;;5007920;28;20052;-67
2022/03/15 00:52:46;;;;;;;49.33;24.55;;;3.20;99.90;;;;;;5005985;28;20049;-67
2022/03/15 00:55:11;;;;;;;36.03;24.40;;;3.30;99.90;;;;;;5005082;28;20046;-67
2022/03/15 00:57:37;;;;;;;39.20;26.02;;;3.30;99.90;;;;;;5014181;28;20116;-67
2022/03/15 01:00:07;;;;;;;40.22;23.55;;;3.30;99.90;;;;;;5015869;28;20399;-67
2022/03/15 01:02:33;;;;;;;37.67;22.95;;;3.30;99.90;;;;;;5007995;28;20135;-67
2022/03/15 01:04:59;;;;;;;37.22;23.15;;;3.30;99.90;;;;;;5006122;28;20500;-67
2022/03/15 01:07:24;;;;;;;37.75;23.08;;;3.30;99.90;;;;;;5008447;28;20042;-67
2022/03/15 01:09:50;;;;;;;40.83;25.42;;;3.30;99.90;;;;;;5002959;28;20065;-67
2022/03/15 01:12:16;;;;;;;53.80;26.52;;;3.30;99.90;;;;;;5006304;28;20046;-66
2022/03/15 01:14:41;;;;;;;40.50;25.85;;;3.30;99.90;;;;;;5004768;28;20072;-67
2022/03/15 01:17:08;;;;;;;48.40;26.33;;;3.30;99.90;;;;;;5005978;28;21315;-67
2022/03/15 01:19:33;;;;;;;44.40;26.98;;;3.30;99.90;;;;;;5010345;28;20057;-66
2022/03/15 01:21:59;;;;;;;36.95;26.90;;;3.30;99.90;;;;;;5010202;28;20042;-67
2022/03/15 01:24:31;;;;;;;40.67;25.98;;;3.30;99.90;;;;;;5010845;28;20046;-67
2022/03/15 01:26:57;;;;;;;35.60;25.10;;;3.30;99.90;;;;;;5007606;28;20466;-67
2022/03/15 01:29:25;;;;;;;41.10;26.23;;;3.30;99.90;;;;;;5017232;28;20050;-66
2022/03/15 01:31:51;;;;;;;37.80;25.63;;;3.20;99.90;;;;;;5010208;28;20084;-66
2022/03/15 01:34:17;;;;;;;38.80;25.77;;;3.20;99.90;;;;;;5005550;28;20116;-67
2022/03/15 01:36:42;;;;;;;29.65;22.90;;;3.20;99.90;;;;;;5008484;28;20527;-67
2022/03/15 01:39:08;;;;;;;54.22;22.83;;;3.20;99.90;;;;;;5006517;28;20068;-67
2022/03/15 01:41:38;;;;;;;35.22;23.10;;;3.20;99.90;;;;;;5007225;28;20092;-67
2022/03/15 01:44:13;;;;;;;47.78;23.38;;;3.10;99.90;;;;;;5006302;28;20129;-67
2022/03/15 01:46:38;;;;;;;31.75;23.23;;;3.10;99.90;;;;;;5004833;28;20139;-67
2022/03/15 01:49:04;;;;;;;38.17;25.70;;;3.10;99.90;;;;;;5006201;28;20524;-66
2022/03/15 01:51:30;;;;;;;31.17;20.40;;;3.10;99.90;;;;;;5003651;28;20041;-67
2022/03/15 01:53:55;;;;;;;26.38;15.10;;;3.10;99.90;;;;;;5009580;28;20046;-67
2022/03/15 01:56:21;;;;;;;26.55;17.48;;;3.00;99.90;;;;;;5002709;28;20038;-67
2022/03/15 01:58:47;;;;;;;27.25;15.68;;;3.00;99.90;;;;;;5007070;28;20396;-67
2022/03/15 02:01:13;;;;;;;26.92;18.02;;;3.00;99.90;;;;;;5004160;28;20050;-67
2022/03/15 02:03:38;;;;;;;29.33;20.08;;;3.00;99.90;;;;;;5000205;28;20052;-67
2022/03/15 02:06:05;;;;;;;32.50;18.95;;;3.00;99.90;;;;;;4999108;28;20046;-67
2022/03/15 02:08:33;;;;;;;40.40;23.27;;;3.00;99.90;;;;;;5004008;28;20488;-67
2022/03/15 02:10:58;;;;;;;38.28;25.40;;;3.00;99.90;;;;;;5006996;28;20046;-67
2022/03/15 02:13:24;;;;;;;33.22;22.63;;;3.00;99.90;;;;;;5012977;28;20708;-67
2022/03/15 02:15:50;;;;;;;33.83;21.67;;;3.00;99.90;;;;;;5005104;28;20047;-67
2022/03/15 02:18:18;;;;;;;31.42;21.98;;;3.00;99.90;;;;;;5012193;28;20168;-67
2022/03/15 02:20:44;;;;;;;34.67;21.10;;;2.90;99.90;;;;;;5002593;28;20417;-67
2022/03/15 02:23:12;;;;;;;30.10;19.73;;;2.90;99.90;;;;;;5005903;28;20050;-66
2022/03/15 02:25:38;;;;;;;37.45;23.40;;;2.90;99.90;;;;;;5002091;28;20042;-67
2022/03/15 02:28:04;;;;;;;38.83;24.20;;;2.90;99.90;;;;;;5005244;28;20392;-66
2022/03/15 02:30:30;;;;;;;39.45;25.38;;;2.90;99.90;;;;;;5011181;28;20125;-66
2022/03/15 02:32:57;;;;;;;33.45;24.48;;;2.90;99.90;;;;;;5012398;28;20038;-67
2022/03/15 02:35:22;;;;;;;37.10;24.10;;;2.80;99.90;;;;;;5004277;28;20554;-66
2022/03/15 02:37:48;;;;;;;35.83;23.35;;;2.80;99.90;;;;;;5011790;28;20050;-67
2022/03/15 02:40:14;;;;;;;29.67;20.15;;;2.80;99.90;;;;;;5008633;28;20142;-66
2022/03/15 02:42:39;;;;;;;34.42;22.80;;;2.80;99.90;;;;;;5007278;28;20893;-67
2022/03/15 02:45:06;;;;;;;35.65;24.40;;;2.80;99.90;;;;;;5004044;28;20092;-67
2022/03/15 02:47:32;;;;;;;32.75;23.13;;;2.80;99.90;;;;;;5013389;28;20042;-67
2022/03/15 02:49:57;;;;;;;39.45;22.23;;;2.80;99.90;;;;;;5010900;28;20056;-66
2022/03/15 02:52:26;;;;;;;38.40;24.38;;;2.90;99.90;;;;;;5004482;28;20503;-66
2022/03/15 02:54:52;;;;;;;31.95;22.38;;;2.80;99.90;;;;;;5012450;28;20058;-67
2022/03/15 02:57:19;;;;;;;35.42;22.17;;;2.80;99.90;;;;;;5010877;28;20046;-67
2022/03/15 02:59:44;;;;;;;33.60;24.55;;;2.80;99.90;;;;;;5015433;28;20521;-67
2022/03/15 03:02:10;;;;;;;45.10;27.05;;;2.80;99.90;;;;;;5010952;28;20045;-66
2022/03/15 03:04:35;;;;;;;44.33;29.20;;;2.80;99.90;;;;;;5010072;28;20042;-67
2022/03/15 03:07:02;;;;;;;42.28;26.05;;;2.80;99.90;;;;;;5005567;28;20046;-67
2022/03/15 03:09:28;;;;;;;39.10;25.98;;;2.80;99.90;;;;;;5012301;28;20710;-66
2022/03/15 03:11:55;;;;;;;31.80;23.70;;;2.80;99.90;;;;;;5005386;28;20053;-67
2022/03/15 03:14:22;;;;;;;26.10;20.60;;;2.80;99.90;;;;;;5007746;28;20056;-67
2022/03/15 03:16:47;;;;;;;32.20;22.63;;;2.80;99.90;;;;;;5008130;28;20189;-67
2022/03/15 03:19:13;;;;;;;37.75;21.35;;;2.80;99.90;;;;;;5007293;28;20469;-67
2022/03/15 03:21:40;;;;;;;34.05;23.23;;;2.80;99.90;;;;;;5006018;28;20573;-67
2022/03/15 03:24:09;;;;;;;34.28;23.33;;;2.70;99.90;;;;;;5010748;28;20050;-67
2022/03/15 03:26:37;;;;;;;35.95;24.70;;;2.70;99.90;;;;;;5009896;28;20050;-67
2022/03/15 03:29:09;;;;;;;37.72;25.33;;;2.70;99.90;;;;;;5011281;28;20041;-66
2022/03/15 03:31:38;;;;;;;31.40;23.10;;;2.70;99.90;;;;;;5010713;28;20244;-67
2022/03/15 03:34:05;;;;;;;45.85;25.30;;;2.60;99.90;;;;;;5011903;28;20061;-66
2022/03/15 03:36:36;;;;;;;35.33;24.83;;;2.60;99.90;;;;;;5009243;28;20042;-66
2022/03/15 03:39:06;;;;;;;41.55;24.63;;;2.60;99.90;;;;;;5010833;28;20065;-66
2022/03/15 03:41:32;;;;;;;37.85;24.60;;;2.60;99.90;;;;;;5007891;28;20103;-66
2022/03/15 03:43:57;;;;;;;33.80;21.23;;;2.60;99.90;;;;;;5002036;28;20054;-67
2022/03/15 03:46:24;;;;;;;33.28;23.13;;;2.60;99.90;;;;;;5008665;28;20050;-67
2022/03/15 03:48:50;;;;;;;31.05;22.50;;;2.50;99.90;;;;;;4992508;28;20049;-67
2022/03/15 03:51:18;;;;;;;30.80;23.35;;;2.60;99.90;;;;;;5010277;28;20050;-67
2022/03/15 03:53:43;;;;;;;33.17;24.20;;;2.60;99.90;;;;;;5013803;28;20137;-67
2022/03/15 03:56:09;;;;;;;42.60;23.77;;;2.50;99.90;;;;;;5009832;28;20120;-67
2022/03/15 03:58:35;;;;;;;44.17;27.48;;;2.50;99.90;;;;;;5006873;28;20042;-66
2022/03/15 04:01:01;;;;;;;32.00;24.80;;;2.50;99.90;;;;;;5009195;28;20037;-67
2022/03/15 04:03:29;;;;;;;47.85;28.52;;;2.50;99.90;;;;;;5011337;28;20143;-67
2022/03/15 04:05:56;;;;;;;38.10;27.55;;;2.60;99.90;;;;;;5004348;28;20045;-67
2022/03/15 04:08:23;;;;;;;40.60;29.58;;;2.60;99.90;;;;;;5008551;28;20057;-67
2022/03/15 04:10:50;;;;;;;46.53;28.70;;;2.60;99.90;;;;;;5006236;28;20077;-66
2022/03/15 04:13:17;;;;;;;51.92;25.75;;;2.70;99.90;;;;;;5007983;28;20074;-67
2022/03/15 04:15:44;;;;;;;37.20;24.50;;;2.70;99.90;;;;;;5011117;28;20038;-67
2022/03/15 04:18:11;;;;;;;29.27;25.00;;;2.70;99.90;;;;;;5016479;28;20739;-67
2022/03/15 04:20:36;;;;;;;35.42;25.85;;;2.60;99.90;;;;;;5005362;28;20042;-66
2022/03/15 04:23:02;;;;;;;45.03;26.25;;;2.70;99.90;;;;;;5007246;28;20144;-67
2022/03/15 04:25:29;;;;;;;57.97;36.17;;;2.70;99.90;;;;;;5011232;28;20125;-67
2022/03/15 04:28:00;;;;;;;69.75;43.17;;;2.70;99.90;;;;;;5012548;28;20457;-67
2022/03/15 04:30:26;;;;;;;69.90;40.47;;;2.80;99.90;;;;;;5010074;28;20176;-66
2022/03/15 04:32:53;;;;;;;81.95;48.88;;;2.80;99.90;;;;;;5013363;28;20475;-66
2022/03/15 04:35:19;;;;;;;73.50;43.95;;;2.90;99.90;;;;;;5010730;28;20053;-66
2022/03/15 04:37:45;;;;;;;53.40;39.22;;;2.90;99.90;;;;;;5007846;28;20037;-66
2022/03/15 04:40:12;;;;;;;53.70;37.30;;;3.00;99.90;;;;;;5005776;28;20053;-66
2022/03/15 04:42:38;;;;;;;44.15;33.67;;;3.00;99.90;;;;;;5007443;28;20046;-67
2022/03/15 04:45:03;;;;;;;52.90;35.90;;;3.00;99.90;;;;;;5009787;28;20073;-67
2022/03/15 04:47:29;;;;;;;45.10;32.05;;;3.00;99.90;;;;;;5003362;28;20046;-67
2022/03/15 04:49:55;;;;;;;41.55;29.05;;;3.00;99.90;;;;;;5008467;28;20139;-66
2022/03/15 04:52:21;;;;;;;43.38;29.50;;;3.00;99.90;;;;;;5010097;28;20080;-66
2022/03/15 04:54:46;;;;;;;51.80;31.58;;;3.00;99.90;;;;;;5009362;28;20034;-66
2022/03/15 04:57:12;;;;;;;47.22;32.13;;;3.00;99.90;;;;;;5005871;28;20058;-67
2022/03/15 04:59:38;;;;;;;46.70;33.80;;;3.10;99.90;;;;;;5004612;28;20049;-67
2022/03/15 05:02:03;;;;;;;59.25;35.60;;;3.10;99.90;;;;;;5005859;28;20087;-66
2022/03/15 05:04:30;;;;;;;63.13;35.13;;;3.10;99.90;;;;;;5007925;28;20042;-66
2022/03/15 05:06:56;;;;;;;52.58;32.30;;;3.20;99.90;;;;;;5004372;28;20417;-67
2022/03/15 05:09:21;;;;;;;43.13;30.27;;;3.20;99.90;;;;;;5005800;28;20038;-66
2022/03/15 05:11:47;;;;;;;48.05;33.00;;;3.20;99.90;;;;;;5006873;28;20049;-66
2022/03/15 05:14:13;;;;;;;89.38;47.15;;;3.20;99.90;;;;;;5002020;28;20254;-66
2022/03/15 05:16:39;;;;;;;64.03;41.58;;;3.20;99.90;;;;;;5010171;28;20120;-66
2022/03/15 05:19:05;;;;;;;74.03;45.10;;;3.30;99.90;;;;;;5011502;28;20046;-67
2022/03/15 05:21:31;;;;;;;92.43;53.83;;;3.30;99.90;;;;;;5011133;28;20042;-67
2022/03/15 05:23:57;;;;;;;67.30;47.30;;;3.30;99.90;;;;;;5002519;28;20046;-66
2022/03/15 05:26:23;;;;;;;83.82;51.10;;;3.30;99.90;;;;;;5009678;28;20135;-66
2022/03/15 05:28:50;;;;;;;102.40;58.90;;;3.30;99.90;;;;;;5005671;28;20041;-66
2022/03/15 05:31:20;;;;;;;98.18;58.60;;;3.30;99.90;;;;;;5006277;28;20053;-66
2022/03/15 05:33:46;;;;;;;79.85;50.55;;;3.30;99.90;;;;;;5009036;28;20073;-66
2022/03/15 05:36:13;;;;;;;67.55;46.53;;;3.30;99.90;;;;;;5003320;28;20074;-66
2022/03/15 05:38:40;;;;;;;80.75;48.42;;;3.40;99.90;;;;;;5000602;28;20133;-66
2022/03/15 05:41:07;;;;;;;68.13;45.58;;;3.40;99.90;;;;;;4990682;28;20061;-66
2022/03/15 05:43:33;;;;;;;67.20;44.95;;;3.30;99.90;;;;;;5005485;28;20058;-67
2022/03/15 05:45:59;;;;;;;66.78;46.30;;;3.30;99.90;;;;;;5007760;28;20129;-66
2022/03/15 05:48:25;;;;;;;97.82;57.50;;;3.40;99.90;;;;;;5008954;28;20042;-66
2022/03/15 05:50:50;;;;;;;104.43;55.15;;;3.40;99.90;;;;;;5009043;28;20486;-66
2022/03/15 05:53:16;;;;;;;75.88;50.53;;;3.30;99.90;;;;;;5006087;28;20046;-66
2022/03/15 05:55:42;;;;;;;63.65;44.33;;;3.30;99.90;;;;;;5010490;28;20483;-66
2022/03/15 05:58:09;;;;;;;64.25;41.50;;;3.40;99.90;;;;;;5007291;28;20050;-66
2022/03/15 06:00:35;;;;;;;53.10;38.38;;;3.40;99.90;;;;;;5009331;28;20064;-66
2022/03/15 06:03:00;;;;;;;77.35;50.10;;;3.40;99.90;;;;;;5010192;28;20038;-66
2022/03/15 06:05:27;;;;;;;64.82;45.40;;;3.40;99.90;;;;;;5002256;28;20052;-67
2022/03/15 06:07:53;;;;;;;96.25;56.15;;;3.40;99.90;;;;;;5000484;28;20042;-66
2022/03/15 06:10:23;;;;;;;70.75;45.55;;;3.40;99.90;;;;;;5005608;28;20042;-66
2022/03/15 06:12:49;;;;;;;102.07;57.15;;;3.40;99.90;;;;;;5005016;28;20391;-66
2022/03/15 06:15:15;;;;;;;82.85;50.85;;;3.40;99.90;;;;;;5005659;28;20042;-66
2022/03/15 06:17:49;;;;;;;100.80;56.65;;;3.40;99.90;;;;;;5002119;28;20399;-66
2022/03/15 06:20:17;;;;;;;95.07;55.65;;;3.40;99.90;;;;;;4998668;28;20120;-67
2022/03/15 06:22:44;;;;;;;;;;;3.50;99.90;;;;;;5010705;28;20849;-66
2022/03/15 06:25:10;;;;;;;103.93;63.15;;;3.50;99.90;;;;;;5009399;28;19972;-66
2022/03/15 06:27:36;;;;;;;87.72;55.53;;;3.50;99.90;;;;;;5005182;28;20080;-67
2022/03/15 06:30:04;;;;;;;97.35;57.67;;;3.60;99.90;;;;;;5006840;28;20046;-66
2022/03/15 06:32:31;;;;;;;82.85;55.83;;;3.60;99.90;;;;;;5008231;28;20124;-67
2022/03/15 06:35:02;;;;;;;105.67;64.70;;;3.70;99.90;;;;;;5008516;28;20056;-66
2022/03/15 06:37:31;;;;;;;107.00;61.55;;;3.70;99.90;;;;;;5002121;28;20801;-67
2022/03/15 06:39:57;;;;;;;83.75;56.42;;;3.70;99.90;;;;;;5008669;28;20125;-66
2022/03/15 06:42:22;;;;;;;95.72;59.97;;;3.70;99.90;;;;;;5004418;28;20118;-66
2022/03/15 06:44:53;;;;;;;103.90;62.30;;;3.80;99.90;;;;;;5007972;28;20096;-66
2022/03/15 06:47:19;;;;;;;100.20;58.83;;;3.80;99.90;;;;;;5007727;28;20423;-66
2022/03/15 06:49:46;;;;;;;93.65;58.88;;;3.80;99.90;;;;;;5008208;28;20048;-66
2022/03/15 06:52:12;;;;;;;123.18;70.68;;;3.80;99.90;;;;;;5005687;28;20496;-66
2022/03/15 06:54:38;;;;;;;97.95;57.38;;;3.90;99.90;;;;;;5008261;28;20097;-66
2022/03/15 06:57:03;;;;;;;96.05;55.58;;;3.90;99.90;;;;;;5003651;28;20030;-67
2022/03/15 06:59:29;;;;;;;118.03;66.70;;;4.00;99.90;;;;;;5007841;28;20057;-67
2022/03/15 07:01:55;;;;;;;97.75;58.35;;;4.00;99.90;;;;;;5002575;28;20136;-67
2022/03/15 07:04:20;;;;;;;111.28;62.50;;;4.10;99.90;;;;;;5003910;28;20089;-66
2022/03/15 07:06:46;;;;;;;103.88;57.85;;;4.10;99.90;;;;;;5001753;28;20408;-66
2022/03/15 07:09:12;;;;;;;119.55;66.88;;;4.10;99.90;;;;;;5010519;28;20089;-66
2022/03/15 07:11:38;;;;;;;110.20;64.50;;;4.20;99.90;;;;;;5002252;28;20046;-67
2022/03/15 07:14:04;;;;;;;105.47;59.78;;;4.20;99.90;;;;;;5007936;28;20042;-66
2022/03/15 07:16:30;;;;;;;108.25;68.68;;;4.20;99.90;;;;;;5003752;28;20041;-67
2022/03/15 07:18:57;;;;;;;128.30;71.80;;;4.30;99.90;;;;;;5006400;28;20046;-67
2022/03/15 07:21:24;;;;;;;118.68;72.50;;;4.40;99.90;;;;;;5002493;28;20076;-67
2022/03/15 07:23:50;;;;;;;133.52;71.85;;;4.40;99.90;;;;;;5007968;28;20034;-67
2022/03/15 07:26:16;;;;;;;114.93;69.93;;;4.50;99.90;;;;;;4998676;28;20557;-66
2022/03/15 07:28:42;;;;;;;136.48;70.65;;;4.50;99.90;;;;;;5000736;28;20618;-66
2022/03/15 07:31:08;;;;;;;135.43;70.63;;;4.60;99.90;;;;;;5007938;28;20409;-68
2022/03/15 07:33:33;;;;;;;128.45;71.90;;;4.70;99.90;;;;;;4992598;28;20057;-68
2022/03/15 07:36:00;;;;;;;118.35;69.50;;;4.70;99.90;;;;;;5009725;28;20037;-68
2022/03/15 07:38:26;;;;;;;118.75;66.93;;;4.80;99.90;;;;;;4998097;28;20041;-66
2022/03/15 07:40:56;;;;;;;123.97;68.38;;;4.80;99.90;;;;;;5011160;28;20034;-66
2022/03/15 07:43:23;;;;;;;116.55;71.20;;;4.90;99.90;;;;;;5011685;28;20046;-67
2022/03/15 07:45:49;;;;;;;102.13;66.50;;;5.00;99.90;;;;;;5009155;28;20052;-66
2022/03/15 07:48:16;;;;;;;123.18;72.43;;;5.00;99.90;;;;;;5009306;28;20046;-66
2022/03/15 07:50:41;;;;;;;132.40;69.65;;;5.00;99.90;;;;;;5007734;28;20131;-67
2022/03/15 07:53:07;;;;;;;125.70;72.13;;;5.10;99.90;;;;;;5005225;28;20483;-66
2022/03/15 07:55:34;;;;;;;121.05;72.50;;;5.10;99.90;;;;;;5003384;28;20049;-67
2022/03/15 07:58:00;;;;;;;126.72;74.57;;;5.20;99.90;;;;;;5008516;28;20053;-67
2022/03/15 08:00:26;;;;;;;136.95;73.30;;;5.20;99.90;;;;;;5013119;28;20050;-66
2022/03/15 08:02:52;;;;;;;119.53;73.78;;;5.20;99.90;;;;;;5013114;28;20542;-66
2022/03/15 08:05:18;;;;;;;126.70;72.78;;;5.30;99.90;;;;;;5004632;28;20063;-66
2022/03/15 08:07:44;;;;;;;120.57;71.75;;;5.30;99.90;;;;;;5010309;28;20041;-66
2022/03/15 08:10:13;;;;;;;133.32;72.97;;;5.30;99.90;;;;;;5004745;28;20046;-66
2022/03/15 08:12:40;;;;;;;123.07;71.55;;;5.40;99.90;;;;;;5012991;28;20049;-67
2022/03/15 08:15:08;;;;;;;115.05;69.30;;;5.40;99.90;;;;;;5005036;28;20038;-67
2022/03/15 08:17:34;;;;;;;124.45;74.10;;;5.40;99.90;;;;;;4998117;28;20045;-67
2022/03/15 08:20:00;;;;;;;114.85;68.90;;;5.50;99.90;;;;;;5000012;28;20198;-67
2022/03/15 08:22:28;;;;;;;121.15;73.00;;;5.50;99.90;;;;;;5007940;28;20069;-67
2022/03/15 08:24:55;;;;;;;127.05;72.53;;;5.50;99.90;;;;;;5009782;28;20073;-67
2022/03/15 08:27:21;;;;;;;113.70;71.15;;;5.50;99.90;;;;;;5010256;28;20053;-67
2022/03/15 08:29:47;;;;;;;113.00;68.30;;;5.60;99.90;;;;;;5014074;28;20058;-67
2022/03/15 08:32:13;;;;;;;117.28;69.93;;;5.60;99.90;;;;;;5009661;28;20452;-67
2022/03/15 08:34:39;;;;;;;122.10;70.22;;;5.60;99.90;;;;;;5009549;28;20077;-67
2022/03/15 08:37:05;;;;;;;113.60;70.25;;;5.70;99.90;;;;;;5008143;28;20061;-66
2022/03/15 08:39:31;;;;;;;114.28;71.18;;;5.70;99.90;;;;;;5006464;28;20503;-66
2022/03/15 08:41:57;;;;;;;141.10;76.53;;;5.70;99.90;;;;;;5002735;28;20048;-66
2022/03/15 08:44:23;;;;;;;121.53;71.47;;;5.80;99.90;;;;;;5007447;28;20057;-66
2022/03/15 08:46:50;;;;;;;106.90;68.30;;;5.80;99.90;;;;;;5008026;28;20054;-66
2022/03/15 08:49:18;;;;;;;119.97;72.07;;;5.80;99.90;;;;;;5011967;28;20065;-67
2022/03/15 08:51:45;;;;;;;135.23;74.72;;;5.90;99.90;;;;;;5015746;28;20096;-66
2022/03/15 08:54:11;;;;;;;128.15;73.78;;;5.90;99.90;;;;;;5001677;28;20050;-66
2022/03/15 08:56:41;;;;;;;124.40;71.20;;;5.90;99.90;;;;;;5006378;28;20038;-66
2022/03/15 08:59:12;;;;;;;117.68;68.63;;;6.00;99.90;;;;;;5012418;28;20560;-66
2022/03/15 09:01:38;;;;;;;133.23;74.75;;;6.00;99.90;;;;;;5010817;28;20049;-66
2022/03/15 09:04:04;;;;;;;120.97;74.63;;;6.00;99.90;;;;;;5008082;28;20466;-66
2022/03/15 09:06:31;;;;;;;113.75;69.82;;;6.10;99.90;;;;;;5002083;28;20137;-67
2022/03/15 09:09:00;;;;;;;118.25;73.03;;;6.10;99.90;;;;;;5002834;28;20050;-66
2022/03/15 09:11:29;;;;;;;117.30;71.25;;;6.10;99.90;;;;;;5000563;28;20064;-66
2022/03/15 09:13:55;;;;;;;111.18;69.90;;;6.20;99.90;;;;;;5007126;28;20064;-66
2022/03/15 09:16:21;;;;;;;114.10;71.15;;;6.20;99.90;;;;;;5017307;28;20041;-66
2022/03/15 09:18:47;;;;;;;111.20;70.93;;;6.20;99.90;;;;;;5010566;28;20037;-66
2022/03/15 09:21:13;;;;;;;109.03;71.93;;;6.30;99.90;;;;;;5012038;28;20128;-65
2022/03/15 09:23:39;;;;;;;131.48;76.60;;;6.30;99.90;;;;;;5006781;28;20120;-66
2022/03/15 09:26:05;;;;;;;106.10;68.50;;;6.30;99.90;;;;;;5007091;28;20101;-66
2022/03/15 09:28:31;;;;;;;106.68;70.22;;;6.40;99.90;;;;;;5005794;28;20049;-66
2022/03/15 09:30:57;;;;;;;114.00;68.68;;;6.40;99.90;;;;;;5017999;28;20038;-66
2022/03/15 09:33:23;;;;;;;100.63;64.40;;;6.40;99.90;;;;;;5007822;28;20088;-66
2022/03/15 09:35:49;;;;;;;100.47;66.05;;;6.40;99.90;;;;;;5006696;28;20045;-66
2022/03/15 09:38:15;;;;;;;111.25;69.75;;;6.40;99.90;;;;;;5005889;28;20045;-66
2022/03/15 09:40:43;;;;;;;111.63;67.43;;;6.50;99.90;;;;;;5012339;28;20042;-66
2022/03/15 09:43:12;;;;;;;103.53;66.45;;;6.50;99.90;;;;;;5007211;28;20116;-66
2022/03/15 09:45:38;;;;;;;;;;;6.50;99.90;;;;;;5008690;28;20057;-66
2022/03/15 09:48:15;;;;;;;102.93;66.53;;;6.50;99.90;;;;;;5008958;28;19921;-65
2022/03/15 09:50:41;;;;;;;111.00;72.45;;;6.60;99.90;;;;;;5002914;28;20069;-66
2022/03/15 09:53:09;;;;;;;113.20;71.15;;;6.60;99.90;;;;;;5013092;28;20041;-66
2022/03/15 09:55:37;;;;;;;102.28;69.68;;;6.60;99.90;;;;;;5008153;28;20132;-66
2022/03/15 09:58:03;;;;;;;105.70;70.57;;;6.70;99.90;;;;;;5001534;28;20037;-66
2022/03/15 10:00:29;;;;;;;98.88;66.72;;;6.70;99.90;;;;;;5006210;28;20080;-66
2022/03/15 10:02:55;;;;;;;104.60;70.35;;;6.80;99.90;;;;;;5008102;28;20085;-66
2022/03/15 10:05:21;;;;;;;110.50;76.25;;;6.80;99.90;;;;;;5010433;28;20069;-66
2022/03/15 10:07:47;;;;;;;107.78;72.43;;;6.90;99.90;;;;;;5013365;28;20033;-66
2022/03/15 10:10:14;;;;;;;110.68;74.78;;;6.90;99.90;;;;;;5017027;28;20831;-66
2022/03/15 10:12:40;;;;;;;115.57;72.47;;;7.00;99.90;;;;;;5017365;28;20115;-66
2022/03/15 10:15:21;;;;;;;115.25;76.22;;;7.00;99.90;;;;;;5004757;28;20086;-66
2022/03/15 10:17:53;;;;;;;102.90;71.43;;;7.10;99.90;;;;;;5007364;28;20044;-66
2022/03/15 10:20:23;;;;;;;108.75;72.25;;;7.20;99.90;;;;;;5007548;28;20053;-66
2022/03/15 10:22:57;;;;;;;95.80;68.70;;;7.20;99.90;;;;;;4987322;28;20049;-66
2022/03/15 10:25:24;;;;;;;106.70;71.45;;;7.30;99.90;;;;;;5002026;28;20053;-66
2022/03/15 10:27:55;;;;;;;116.53;74.60;;;7.40;99.90;;;;;;4997363;28;20131;-67
2022/03/15 10:30:22;;;;;;;106.80;74.25;;;7.50;99.90;;;;;;5005039;28;20050;-66
2022/03/15 10:32:48;;;;;;;107.97;73.00;;;7.50;99.90;;;;;;5011013;28;20101;-66
2022/03/15 10:35:18;;;;;;;98.75;69.90;;;7.60;99.90;;;;;;5002934;28;20811;-66
2022/03/15 10:37:44;;;;;;;94.75;69.07;;;7.70;99.90;;;;;;5014051;28;20154;-66
2022/03/15 10:40:11;;;;;;;98.10;69.32;;;7.70;99.90;;;;;;5007292;28;20054;-66
2022/03/15 10:42:41;;;;;;;103.10;69.05;;;7.70;99.90;;;;;;5013187;28;20046;-66
2022/03/15 10:45:15;;;;;;;91.45;69.25;;;7.80;99.90;;;;;;4998553;28;20089;-66
2022/03/15 10:47:53;;;;;;;95.50;65.57;;;7.90;99.90;;;;;;5021952;28;20052;-66
2022/03/15 10:50:22;;;;;;;92.32;64.40;;;7.90;99.90;;;;;;5010002;28;20049;-66
2022/03/15 10:52:49;;;;;;;99.63;69.13;;;8.00;99.90;;;;;;5009505;28;20545;-66
2022/03/15 10:55:28;;;;;;;99.50;66.47;;;8.00;99.90;;;;;;5008329;28;20407;-66
2022/03/15 10:57:58;;;;;;;108.88;71.60;;;8.00;99.90;;;;;;5004701;28;20042;-66
2022/03/15 11:00:30;;;;;;;102.00;69.30;;;8.10;99.90;;;;;;5002500;28;20046;-66
2022/03/15 11:02:57;;;;;;;106.70;72.90;;;8.10;99.90;;;;;;5005934;28;20038;-66
2022/03/15 11:05:33;;;;;;;100.32;75.57;;;8.10;99.90;;;;;;5006822;28;20206;-66
2022/03/15 11:08:21;;;;;;;96.88;71.93;;;8.20;99.90;;;;;;5020265;28;20041;-67
2022/03/15 11:10:50;;;;;;;93.80;69.07;;;8.30;99.90;;;;;;5012083;28;20543;-66
2022/03/15 11:13:17;;;;;;;93.05;68.35;;;8.30;99.90;;;;;;5015816;28;20129;-66
2022/03/15 11:15:48;;;;;;;86.30;64.45;;;8.40;99.90;;;;;;5015956;28;20065;-66
2022/03/15 11:18:16;;;;;;;97.43;67.05;;;8.40;99.90;;;;;;5015489;28;20100;-66
2022/03/15 11:20:44;;;;;;;96.35;70.53;;;8.50;99.90;;;;;;5016843;28;20507;-66
2022/03/15 11:23:12;;;;;;;106.63;71.10;;;8.50;99.90;;;;;;5016848;28;20073;-66
2022/03/15 11:25:40;;;;;;;97.10;65.57;;;8.60;99.90;;;;;;5021195;28;20048;-66
2022/03/15 11:28:12;;;;;;;100.10;68.10;;;8.70;99.90;;;;;;5006241;28;20073;-66
2022/03/15 11:30:39;;;;;;;90.07;67.53;;;8.70;99.90;;;;;;5013147;28;20052;-66
2022/03/15 11:33:06;;;;;;;95.72;66.82;;;8.80;99.90;;;;;;5005829;28;20050;-66
2022/03/15 11:35:34;;;;;;;101.22;65.90;;;8.90;99.90;;;;;;5013752;28;20056;-66
2022/03/15 11:38:04;;;;;;;92.82;65.38;;;8.90;99.90;;;;;;5012010;28;20038;-66
2022/03/15 11:40:31;;;;;;;83.70;62.28;;;9.00;99.90;;;;;;5012533;28;20044;-66
2022/03/15 11:43:18;;;;;;;88.40;64.72;;;9.10;99.90;;;;;;5019986;28;20047;-66
2022/03/15 11:45:55;;;;;;;93.05;67.65;;;9.20;99.90;;;;;;4993886;28;20046;-66
2022/03/15 11:48:32;;;;;;;84.95;62.70;;;9.20;99.90;;;;;;5010486;28;20054;-67
2022/03/15 11:51:34;;;;;;;92.65;64.85;;;9.30;99.90;;;;;;5012432;28;20100;-67
2022/03/15 11:54:16;;;;;;;91.10;63.70;;;9.30;99.90;;;;;;5008071;28;20084;-67
2022/03/15 11:56:51;;;;;;;81.32;58.88;;;9.30;99.90;;;;;;5006366;28;20041;-67
2022/03/15 11:59:17;;;;;;;89.65;63.45;;;9.40;99.90;;;;;;5017523;28;20038;-67
2022/03/15 12:01:51;;;;;;;79.32;60.50;;;9.40;99.90;;;;;;5012305;28;20051;-66
2022/03/15 12:04:25;;;;;;;78.55;58.40;;;9.50;99.90;;;;;;5018436;28;20176;-66
2022/03/15 12:07:00;;;;;;;85.30;58.55;;;9.60;99.90;;;;;;5021382;28;20499;-66
2022/03/15 12:09:31;;;;;;;72.53;53.60;;;9.70;99.90;;;;;;5020195;28;20053;-66
2022/03/15 12:12:05;;;;;;;78.90;56.92;;;9.70;99.90;;;;;;5012472;28;20044;-67
2022/03/15 12:14:38;;;;;;;70.22;52.33;;;9.70;99.90;;;;;;5016141;28;20050;-66
2022/03/15 12:17:05;;;;;;;73.35;53.35;;;9.70;99.90;;;;;;5026339;28;20053;-66
2022/03/15 12:19:49;;;;;;;75.97;52.75;;;9.70;99.90;;;;;;5020093;28;20054;-66
2022/03/15 12:22:26;;;;;;;73.38;53.83;;;9.70;99.90;;;;;;5010585;28;20129;-67
2022/03/15 12:25:13;;;;;;;66.00;48.90;;;9.80;99.90;;;;;;5011965;28;20057;-68
2022/03/15 12:27:45;;;;;;;71.50;50.13;;;9.80;99.90;;;;;;5008738;28;20510;-67
2022/03/15 12:30:16;;;;;;;77.72;51.83;;;9.90;99.90;;;;;;5008665;28;20054;-67
2022/03/15 12:32:51;;;;;;;73.35;51.63;;;10.00;99.90;;;;;;5013873;28;20486;-67
2022/03/15 12:35:16;;;;;;;70.22;51.05;;;10.00;99.90;;;;;;5008216;28;20038;-67